Time;durP1;ratioP1;P1;durP2;ratioP2;P2;SDS_P1;SDS_P2;PMS_P1;PMS_P2;Temp;Humidity;BMP_temperature;BMP_pressure;BME280_temperature;BME280_humidity;BME280_pressure;Samples;Min_cycle;Max_cycle;Signal;HPM_P1;HPM_P2
2021/06/24 00:01:41;;;;;;;20.10;6.20;;;;;;;28.39;41.35;100208.09;5096811;28;20359;-77
2021/06/24 00:04:06;;;;;;;23.85;5.95;;;;;;;28.42;41.14;100209.16;5079100;28;20382;-77
2021/06/24 00:06:32;;;;;;;18.13;6.00;;;;;;;28.42;40.65;100217.75;5098244;28;20064;-77
2021/06/24 00:08:57;;;;;;;19.35;5.75;;;;;;;28.50;40.33;100226.75;5079490;28;20456;-77
2021/06/24 00:11:23;;;;;;;20.40;5.15;;;;;;;28.34;40.88;100211.63;5074017;28;20070;-76
2021/06/24 00:13:49;;;;;;;37.25;7.35;;;;;;;28.37;40.39;100219.22;5075232;28;20025;-76
2021/06/24 00:16:14;;;;;;;17.20;4.45;;;;;;;28.28;40.70;100209.84;5074673;28;20358;-76
2021/06/24 00:18:40;;;;;;;16.92;5.50;;;;;;;28.35;40.26;100198.09;5074940;28;20386;-76
2021/06/24 00:21:06;;;;;;;26.13;5.82;;;;;;;28.34;40.43;100185.06;5073564;28;20024;-77
2021/06/24 00:23:35;;;;;;;30.67;6.43;;;;;;;28.54;40.19;100198.75;5075799;28;20438;-76
2021/06/24 00:26:00;;;;;;;22.95;5.82;;;;;;;28.33;40.89;100189.19;5073746;28;20029;-76
2021/06/24 00:28:28;;;;;;;18.45;5.40;;;;;;;28.14;41.57;100189.28;5074287;28;20040;-76
2021/06/24 00:30:55;;;;;;;18.45;5.65;;;;;;;28.06;41.59;100175.81;5073595;28;20093;-76
2021/06/24 00:33:21;;;;;;;17.08;5.70;;;;;;;28.16;40.67;100181.00;5075128;28;20028;-76
2021/06/24 00:35:47;;;;;;;20.23;5.80;;;;;;;28.16;42.61;100189.56;5073537;28;20024;-76
2021/06/24 00:38:14;;;;;;;21.65;6.60;;;;;;;27.91;43.62;100187.94;5074760;28;20031;-77
2021/06/24 00:40:40;;;;;;;26.58;6.72;;;;;;;27.86;44.30;100208.63;5073450;28;20440;-76
2021/06/24 00:43:08;;;;;;;17.77;5.75;;;;;;;27.79;44.18;100196.72;5074990;28;20461;-76
2021/06/24 00:45:34;;;;;;;19.10;6.38;;;;;;;27.69;44.21;100216.72;5073924;28;20468;-76
2021/06/24 00:48:00;;;;;;;23.83;7.38;;;;;;;27.62;44.23;100199.13;5073415;28;20056;-76
2021/06/24 00:50:26;;;;;;;23.77;6.28;;;;;;;27.63;44.01;100207.22;5073234;28;20476;-76
2021/06/24 00:52:52;;;;;;;32.00;6.35;;;;;;;27.65;44.34;100218.97;5073754;28;20024;-76
2021/06/24 00:55:17;;;;;;;19.70;6.55;;;;;;;27.57;43.96;100219.78;5075232;28;20363;-76
2021/06/24 00:57:44;;;;;;;23.23;5.30;;;;;;;27.51;43.76;100208.19;5073292;28;20047;-76
2021/06/24 01:00:10;;;;;;;22.58;6.75;;;;;;;27.55;43.20;100199.47;5072959;28;20532;-76
2021/06/24 01:02:39;;;;;;;25.73;6.53;;;;;;;27.52;42.68;100212.63;5073642;28;20344;-76
2021/06/24 01:05:05;;;;;;;18.38;5.93;;;;;;;27.44;42.84;100211.41;5074305;28;20386;-76
2021/06/24 01:07:31;;;;;;;21.33;6.07;;;;;;;27.67;42.70;100210.69;5072837;28;20031;-76
2021/06/24 01:09:57;;;;;;;25.70;5.47;;;;;;;27.54;43.08;100192.97;5074467;28;20382;-76
2021/06/24 01:12:22;;;;;;;23.48;6.25;;;;;;;27.50;43.60;100186.63;5072685;28;20040;-76
2021/06/24 01:14:50;;;;;;;27.00;7.03;;;;;;;27.35;43.13;100189.34;5073316;28;20120;-76
2021/06/24 01:17:17;;;;;;;17.60;5.68;;;;;;;27.23;43.58;100190.31;5073110;28;20025;-76
2021/06/24 01:19:45;;;;;;;23.00;5.53;;;;;;;27.23;43.35;100186.69;5074290;28;20036;-76
2021/06/24 01:22:12;;;;;;;13.75;4.95;;;;;;;27.25;42.96;100175.56;5072365;28;20032;-75
2021/06/24 01:24:38;;;;;;;18.63;5.05;;;;;;;27.20;43.42;100164.78;5074824;28;20581;-76
2021/06/24 01:27:03;;;;;;;12.50;4.40;;;;;;;27.09;43.50;100150.97;5072650;28;20059;-76
2021/06/24 01:29:32;;;;;;;27.60;6.90;;;;;;;27.15;42.73;100154.78;5072617;28;20036;-76
2021/06/24 01:31:58;;;;;;;26.30;5.85;;;;;;;27.11;42.73;100149.25;5073891;28;20103;-76
2021/06/24 01:34:23;;;;;;;20.20;5.53;;;;;;;27.13;42.21;100138.13;5074381;28;20154;-76
2021/06/24 01:36:49;;;;;;;15.23;4.93;;;;;;;27.08;42.56;100135.13;5072727;28;20162;-76
2021/06/24 01:39:15;;;;;;;22.35;5.03;;;;;;;27.09;41.79;100131.78;5074257;28;20416;-76
2021/06/24 01:41:41;;;;;;;21.92;5.55;;;;;;;26.95;42.76;100135.25;5073722;28;20021;-76
2021/06/24 01:44:07;;;;;;;22.33;5.47;;;;;;;26.89;43.05;100128.59;5072293;28;20035;-76
2021/06/24 01:46:32;;;;;;;18.63;5.45;;;;;;;26.87;43.05;100128.28;5056446;28;20047;-76
2021/06/24 01:48:58;;;;;;;20.20;5.80;;;;;;;26.82;42.38;100114.66;5072527;28;20032;-76
2021/06/24 01:51:24;;;;;;;23.30;6.55;;;;;;;26.69;43.84;100116.91;5071913;28;20443;-76
2021/06/24 01:53:51;;;;;;;23.20;5.45;;;;;;;26.60;43.86;100112.75;5072246;28;20070;-76
2021/06/24 01:56:17;;;;;;;18.42;5.45;;;;;;;26.62;43.46;100113.06;5072234;28;20111;-76
2021/06/24 01:58:42;;;;;;;18.83;5.32;;;;;;;26.64;44.11;100109.75;5073658;28;20112;-76
2021/06/24 02:01:08;;;;;;;27.88;5.68;;;;;;;26.56;44.00;100095.00;5072064;28;20098;-76
2021/06/24 02:03:36;;;;;;;28.23;6.40;;;;;;;26.52;43.81;100091.50;5072085;28;20033;-76
2021/06/24 02:06:05;;;;;;;20.98;5.38;;;;;;;26.41;43.86;100099.72;5072434;28;20147;-76
2021/06/24 02:08:35;;;;;;;24.65;10.02;;;;;;;26.40;43.96;100095.28;5072021;28;20035;-76
2021/06/24 02:11:01;;;;;;;27.52;14.63;;;;;;;26.35;44.05;100087.34;5071998;28;20036;-76
2021/06/24 02:13:27;;;;;;;26.33;16.25;;;;;;;26.28;44.31;100088.47;5075838;28;20132;-76
2021/06/24 02:15:53;;;;;;;32.90;18.20;;;;;;;26.35;44.21;100099.56;5075325;28;20430;-76
2021/06/24 02:18:18;;;;;;;37.20;20.45;;;;;;;26.39;43.95;100090.84;5075331;28;20040;-76
2021/06/24 02:20:44;;;;;;;31.65;18.10;;;;;;;26.32;44.21;100079.75;5093428;28;20020;-76
2021/06/24 02:23:10;;;;;;;28.73;11.63;;;;;;;26.38;43.82;100086.41;5075374;28;20028;-76
2021/06/24 02:25:36;;;;;;;23.83;8.27;;;;;;;26.42;43.24;100081.38;5093134;28;20099;-76
2021/06/24 02:28:01;;;;;;;23.27;7.25;;;;;;;26.36;43.16;100072.63;5093674;28;20028;-76
2021/06/24 02:30:27;;;;;;;18.20;5.90;;;;;;;26.41;43.49;100078.97;5093553;28;20086;-76
2021/06/24 02:32:53;;;;;;;19.88;4.93;;;;;;;26.48;43.40;100079.47;5075508;28;20089;-76
2021/06/24 02:35:21;;;;;;;17.50;5.65;;;;;;;26.52;42.91;100100.06;5075157;28;20401;-76
2021/06/24 02:37:49;;;;;;;17.25;5.35;;;;;;;26.56;42.32;100097.84;5075162;28;20028;-76
2021/06/24 02:40:17;;;;;;;17.67;5.13;;;;;;;26.78;41.22;100102.59;5092916;28;20486;-76
2021/06/24 02:42:43;;;;;;;14.95;4.57;;;;;;;26.82;41.14;100109.75;5093228;28;20112;-76
2021/06/24 02:45:10;;;;;;;26.98;6.68;;;;;;;26.91;40.06;100120.38;5093683;28;20031;-76
2021/06/24 02:47:39;;;;;;;30.83;6.85;;;;;;;27.00;38.87;100126.06;5093769;28;20021;-76
2021/06/24 02:50:07;;;;;;;26.30;5.70;;;;;;;27.05;38.70;100148.25;5092874;28;20489;-76
2021/06/24 02:52:33;;;;;;;21.80;5.75;;;;;;;27.06;38.40;100152.72;5074933;28;20081;-76
2021/06/24 02:54:59;;;;;;;27.45;5.22;;;;;;;27.02;38.62;100157.78;5093433;28;20032;-76
2021/06/24 02:57:24;;;;;;;20.38;5.93;;;;;;;27.24;38.55;100171.91;5074942;28;20089;-76
2021/06/24 02:59:52;;;;;;;25.75;5.72;;;;;;;27.54;38.42;100169.28;5074788;28;20035;-75
2021/06/24 03:02:17;;;;;;;22.35;5.32;;;;;;;27.83;38.32;100180.19;5093600;28;20493;-76
2021/06/24 03:04:43;;;;;;;20.52;5.80;;;;;;;28.01;38.21;100182.97;5078196;28;20024;-76
2021/06/24 03:07:09;;;;;;;29.17;6.13;;;;;;;28.17;37.73;100188.28;5096474;28;20553;-76
2021/06/24 03:09:34;;;;;;;30.13;6.00;;;;;;;28.33;37.04;100189.19;5078655;28;20031;-76
2021/06/24 03:12:00;;;;;;;20.67;5.70;;;;;;;28.42;36.74;100194.88;5078114;28;20055;-76
2021/06/24 03:14:26;;;;;;;30.25;8.70;;;;;;;28.51;36.60;100194.81;5096351;28;20035;-75
2021/06/24 03:16:52;;;;;;;27.50;6.35;;;;;;;28.58;36.94;100182.22;5078316;28;20028;-76
2021/06/24 03:19:19;;;;;;;21.25;6.68;;;;;;;28.62;37.14;100189.34;5078085;28;20046;-76
2021/06/24 03:21:47;;;;;;;40.35;8.00;;;;;;;28.64;37.45;100189.63;5078293;28;20039;-76
2021/06/24 03:24:13;;;;;;;27.55;6.13;;;;;;;28.73;37.06;100199.44;5096361;28;20069;-76
2021/06/24 03:26:39;;;;;;;30.45;6.65;;;;;;;28.85;36.25;100201.25;5078653;28;20028;-76
2021/06/24 03:29:05;;;;;;;22.63;5.13;;;;;;;28.92;35.70;100200.88;5078101;28;20551;-79
2021/06/24 03:31:31;;;;;;;18.45;5.60;;;;;;;29.03;35.35;100221.19;5079174;28;20054;-76
2021/06/24 03:33:57;;;;;;;31.23;6.95;;;;;;;28.99;35.03;100220.59;5078528;28;20522;-76
2021/06/24 03:36:22;;;;;;;20.58;5.18;;;;;;;29.21;34.62;100264.00;5077950;28;20458;-77
2021/06/24 03:38:48;;;;;;;18.27;6.15;;;;;;;29.29;34.80;100277.94;5078429;28;20077;-77
2021/06/24 03:41:15;;;;;;;21.85;6.97;;;;;;;29.19;37.23;100298.09;5096033;28;20055;-76
2021/06/24 03:43:42;;;;;;;26.50;8.48;;;;;;;28.14;43.39;100315.13;5078057;28;20055;-77
2021/06/24 03:46:08;;;;;;;34.13;8.40;;;;;;;27.85;44.15;100340.59;5096032;28;20066;-77
2021/06/24 03:48:34;;;;;;;32.88;8.18;;;;;;;27.63;45.08;100346.47;5096276;28;20031;-76
2021/06/24 03:51:02;;;;;;;28.95;9.55;;;;;;;27.29;46.34;100331.22;5077617;28;20474;-77
2021/06/24 03:53:27;;;;;;;29.63;8.93;;;;;;;27.12;46.93;100327.88;5095922;28;20024;-75
2021/06/24 03:55:53;;;;;;;28.90;9.02;;;;;;;26.98;47.66;100370.50;5078173;28;20115;-76
2021/06/24 03:58:21;;;;;;;24.70;7.55;;;;;;;26.98;47.85;100333.38;5095459;28;20073;-76
2021/06/24 04:00:48;;;;;;;25.77;8.98;;;;;;;27.08;47.42;100363.56;5077399;28;20024;-76
2021/06/24 04:03:15;;;;;;;33.10;7.78;;;;;;;27.06;46.77;100351.78;5077985;28;20408;-76
2021/06/24 04:05:41;;;;;;;25.60;6.88;;;;;;;27.10;46.58;100361.03;5077512;28;20077;-76
2021/06/24 04:08:08;;;;;;;21.00;8.27;;;;;;;27.05;46.53;100390.97;5095818;28;20109;-76
2021/06/24 04:10:35;;;;;;;25.60;6.35;;;;;;;27.08;46.29;100372.91;5095844;28;20115;-77
2021/06/24 04:13:01;;;;;;;20.02;6.43;;;;;;;27.08;46.19;100390.06;5073528;28;20044;-76
2021/06/24 04:15:28;;;;;;;30.38;6.72;;;;;;;27.13;46.10;100365.78;5073699;28;20035;-76
2021/06/24 04:17:54;;;;;;;27.08;8.23;;;;;;;26.93;47.06;100371.91;5075138;28;20039;-76
2021/06/24 04:20:20;;;;;;;25.88;6.70;;;;;;;26.94;47.08;100384.09;5074075;28;20025;-76
2021/06/24 04:22:46;;;;;;;24.42;5.80;;;;;;;26.93;47.31;100388.22;5073767;28;20039;-76
2021/06/24 04:25:17;;;;;;;19.45;6.85;;;;;;;26.87;47.49;100380.28;5075099;28;20035;-76
2021/06/24 04:27:44;;;;;;;15.38;7.10;;;;;;;26.98;47.41;100396.97;5074553;28;20029;-76
2021/06/24 04:30:11;;;;;;;24.38;6.82;;;;;;;26.99;46.75;100386.34;5073634;28;20027;-78
2021/06/24 04:32:37;;;;;;;19.73;7.03;;;;;;;27.00;46.53;100383.00;5073365;28;20463;-78
2021/06/24 04:35:05;;;;;;;26.27;7.65;;;;;;;27.17;46.60;100372.16;5056941;28;20440;-76
2021/06/24 04:37:31;;;;;;;26.92;7.00;;;;;;;27.05;47.29;100368.13;5073678;28;20036;-76
2021/06/24 04:39:57;;;;;;;20.27;6.32;;;;;;;27.20;47.06;100373.25;5074472;28;20066;-78
2021/06/24 04:42:23;;;;;;;28.65;6.30;;;;;;;27.37;46.42;100378.19;5074110;28;20032;-77
2021/06/24 04:44:48;;;;;;;15.18;5.45;;;;;;;27.39;45.91;100358.53;5074811;28;20032;-78
2021/06/24 04:47:15;;;;;;;15.05;5.15;;;;;;;27.56;44.98;100356.16;5073079;28;20489;-77
2021/06/24 04:49:41;;;;;;;29.20;7.18;;;;;;;27.68;45.08;100371.56;5074375;28;20119;-77
2021/06/24 04:52:07;;;;;;;28.80;7.72;;;;;;;27.71;46.01;100392.72;5073423;28;20458;-77
2021/06/24 04:54:33;;;;;;;24.25;6.32;;;;;;;27.86;46.41;100396.53;5074760;28;20028;-77
2021/06/24 04:56:58;;;;;;;26.48;7.28;;;;;;;27.97;47.30;100393.97;5073729;28;20032;-77
2021/06/24 04:59:24;;;;;;;19.48;6.30;;;;;;;28.30;46.84;100404.72;5073447;28;20024;-77
2021/06/24 05:01:50;;;;;;;44.42;10.27;;;;;;;28.44;46.47;100398.34;5072858;28;20066;-76
2021/06/24 05:04:15;;;;;;;27.13;8.05;;;;;;;28.44;46.97;100395.47;5072827;28;20028;-76
2021/06/24 05:06:41;;;;;;;24.38;7.70;;;;;;;28.56;47.55;100397.34;5072836;28;20086;-78
2021/06/24 05:09:07;;;;;;;21.67;7.75;;;;;;;28.59;47.55;100402.09;5074429;28;20025;-78
2021/06/24 05:11:32;;;;;;;19.67;7.57;;;;;;;28.87;47.14;100399.13;5078317;28;20058;-78
2021/06/24 05:13:58;;;;;;;16.02;6.90;;;;;;;29.34;45.94;100397.63;5095119;28;20101;-76
2021/06/24 05:16:24;;;;;;;17.15;6.70;;;;;;;29.81;45.01;100396.00;5076489;28;20032;-76
2021/06/24 05:18:52;;;;;;;24.60;7.53;;;;;;;29.78;45.08;100397.00;5076194;28;20512;-76
2021/06/24 05:21:18;;;;;;;23.08;7.20;;;;;;;29.93;44.60;100397.81;5076104;28;20467;-76
2021/06/24 05:23:44;;;;;;;16.98;5.85;;;;;;;30.14;44.58;100411.03;5076439;28;20028;-78
2021/06/24 05:26:10;;;;;;;20.98;7.22;;;;;;;30.48;44.30;100406.69;5075455;28;20032;-76
2021/06/24 05:28:35;;;;;;;31.98;7.45;;;;;;;30.16;44.64;100405.59;5076356;28;20097;-75
2021/06/24 05:31:03;;;;;;;31.17;8.82;;;;;;;30.18;45.21;100396.47;5075718;28;20466;-76
2021/06/24 05:33:29;;;;;;;35.40;10.73;;;;;;;30.10;45.28;100401.00;5075762;28;20206;-76
2021/06/24 05:35:55;;;;;;;25.33;12.10;;;;;;;30.00;45.44;100406.03;5076026;28;20085;-77
2021/06/24 05:38:23;;;;;;;32.92;12.65;;;;;;;30.03;45.49;100419.38;5075765;28;20040;-76
2021/06/24 05:40:54;;;;;;;30.67;11.95;;;;;;;30.01;45.42;100424.84;5093562;28;20123;-76
2021/06/24 05:43:20;;;;;;;25.73;9.82;;;;;;;30.18;45.17;100420.22;5075983;28;20025;-76
2021/06/24 05:45:45;;;;;;;30.63;10.52;;;;;;;30.23;44.62;100425.28;5075437;28;20035;-77
2021/06/24 05:48:11;;;;;;;24.40;9.18;;;;;;;30.45;44.14;100429.84;5093373;28;20081;-77
2021/06/24 05:50:37;;;;;;;21.83;9.57;;;;;;;30.39;43.70;100428.97;5075660;28;20063;-77
2021/06/24 05:53:06;;;;;;;25.88;9.68;;;;;;;30.64;43.69;100433.31;5075060;28;20486;-77
2021/06/24 05:55:52;;;;;;;28.60;10.95;;;;;;;30.56;44.13;100438.66;5076557;28;20042;-77
2021/06/24 06:08:23;;;;;;;27.30;8.68;;;;;;;30.91;42.41;100437.97;5094317;28;20130;-78
2021/06/24 06:10:49;;;;;;;26.80;8.07;;;;;;;30.69;41.11;100435.50;5075971;28;20098;-80
2021/06/24 06:13:14;;;;;;;27.48;8.63;;;;;;;30.33;41.73;100433.81;5093464;28;20106;-78
2021/06/24 06:15:47;;;;;;;36.63;9.52;;;;;;;30.25;41.63;100437.03;5093363;28;20024;-77
2021/06/24 06:18:24;;;;;;;20.15;7.82;;;;;;;30.13;41.67;100417.25;5075503;28;20040;-77
2021/06/24 06:20:50;;;;;;;30.63;8.43;;;;;;;30.56;41.36;100441.53;5093857;28;20060;-77
2021/06/24 06:23:18;;;;;;;27.90;8.35;;;;;;;30.99;40.25;100447.72;5075110;28;20039;-78
2021/06/24 06:25:46;;;;;;;26.70;8.75;;;;;;;31.55;39.42;100457.22;5092928;28;20024;-78
2021/06/24 06:28:13;;;;;;;19.42;7.72;;;;;;;31.96;38.40;100449.41;5075353;28;20036;-78
2021/06/24 06:30:39;;;;;;;22.65;6.38;;;;;;;32.14;37.95;100439.66;5075379;28;20020;-76
2021/06/24 06:33:05;;;;;;;23.30;7.20;;;;;;;32.01;37.84;100457.31;5075105;28;20382;-77
2021/06/24 06:35:31;;;;;;;24.92;7.75;;;;;;;32.04;37.87;100461.25;5075083;28;20031;-77
2021/06/24 06:37:59;;;;;;;33.17;8.70;;;;;;;31.61;38.58;100458.06;5077662;28;20028;-76
2021/06/24 06:40:25;;;;;;;31.95;9.05;;;;;;;31.48;39.19;100469.94;5078836;28;20024;-77
2021/06/24 06:42:51;;;;;;;26.75;7.07;;;;;;;31.66;38.98;100460.22;5097136;28;20028;-77
2021/06/24 06:45:18;;;;;;;27.67;7.40;;;;;;;31.67;38.94;100461.81;5096955;28;20031;-77
2021/06/24 06:47:45;;;;;;;30.08;9.15;;;;;;;31.52;39.40;100461.06;5097198;28;20369;-76
2021/06/24 06:50:12;;;;;;;27.88;8.27;;;;;;;31.63;39.47;100455.47;5062597;28;20027;-77
2021/06/24 06:52:38;;;;;;;18.60;7.43;;;;;;;31.55;39.91;100448.59;5096977;28;20484;-77
2021/06/24 06:55:04;;;;;;;31.13;7.28;;;;;;;31.34;41.03;100450.66;5097146;28;20046;-76
2021/06/24 06:57:30;;;;;;;34.92;8.35;;;;;;;31.20;41.59;100449.38;5079468;28;20424;-77
2021/06/24 06:59:55;;;;;;;35.75;7.38;;;;;;;30.98;41.87;100449.81;5078964;28;20036;-76
2021/06/24 07:02:21;;;;;;;28.60;8.48;;;;;;;31.13;41.61;100454.75;5079120;28;20117;-77
2021/06/24 07:04:46;;;;;;;33.17;9.25;;;;;;;31.13;41.80;100469.13;5078999;28;20415;-76
2021/06/24 07:07:12;;;;;;;31.17;8.40;;;;;;;31.18;42.31;100454.03;5078310;28;20107;-76
2021/06/24 07:09:37;;;;;;;27.63;9.95;;;;;;;30.82;43.04;100449.56;5096882;28;20077;-77
2021/06/24 07:12:03;;;;;;;32.67;10.10;;;;;;;30.69;43.68;100442.06;5078126;28;20097;-76
2021/06/24 07:14:29;;;;;;;26.30;10.98;;;;;;;30.85;43.76;100442.81;5078218;28;20051;-78
2021/06/24 07:16:55;;;;;;;38.78;9.50;;;;;;;30.85;43.53;100437.09;5077950;28;20039;-77
2021/06/24 07:19:20;;;;;;;26.55;9.02;;;;;;;30.75;44.22;100437.19;5096044;28;20134;-77
2021/06/24 07:21:46;;;;;;;28.42;8.85;;;;;;;30.75;44.45;100437.19;5077208;28;20264;-77
2021/06/24 07:24:11;;;;;;;27.35;8.82;;;;;;;30.60;44.57;100436.38;5095972;28;20031;-77
2021/06/24 07:26:39;;;;;;;27.02;6.05;;;;;;;30.49;44.37;100439.06;5077827;28;20165;-76
2021/06/24 07:29:05;;;;;;;18.80;7.10;;;;;;;30.51;44.45;100442.22;5095559;28;20024;-77
2021/06/24 07:31:30;;;;;;;34.63;9.10;;;;;;;30.63;44.75;100449.75;5095023;28;20076;-77
2021/06/24 07:33:59;;;;;;;22.35;5.90;;;;;;;30.60;44.76;100445.00;5077347;28;20476;-76
2021/06/24 07:36:25;;;;;;;18.67;6.50;;;;;;;30.77;44.23;100440.34;5077791;28;20035;-76
2021/06/24 07:38:50;;;;;;;20.20;6.35;;;;;;;31.08;42.97;100447.63;5077948;28;20091;-77
2021/06/24 07:41:20;;;;;;;24.65;6.50;;;;;;;31.23;42.79;100439.75;5077839;28;20078;-77
2021/06/24 07:43:46;;;;;;;24.15;6.68;;;;;;;31.17;41.83;100443.84;5077848;28;20028;-77
2021/06/24 07:46:11;;;;;;;25.13;6.30;;;;;;;30.99;42.42;100427.63;5078209;28;20028;-78
2021/06/24 07:48:37;;;;;;;18.02;6.07;;;;;;;31.14;42.59;100419.75;5095455;28;20536;-77
2021/06/24 07:51:06;;;;;;;24.77;6.55;;;;;;;31.39;42.39;100414.66;5077597;28;20062;-78
2021/06/24 07:53:31;;;;;;;30.50;7.20;;;;;;;31.87;41.35;100423.66;5077711;28;20028;-77
2021/06/24 07:55:57;;;;;;;23.58;7.15;;;;;;;31.89;41.17;100426.00;5077087;28;20482;-79
2021/06/24 07:58:22;;;;;;;32.70;8.10;;;;;;;31.74;40.75;100437.56;5077338;28;20021;-77
2021/06/24 08:00:48;;;;;;;25.55;6.35;;;;;;;31.60;40.35;100439.25;5077085;28;20024;-77
2021/06/24 08:03:14;;;;;;;24.45;7.28;;;;;;;31.83;40.05;100428.03;5077504;28;20025;-77
2021/06/24 08:05:41;;;;;;;22.00;5.85;;;;;;;31.84;40.28;100423.84;5077074;28;20040;-77
2021/06/24 08:08:06;;;;;;;26.23;6.20;;;;;;;32.07;39.96;100419.97;5077039;28;20032;-77
2021/06/24 08:10:32;;;;;;;29.83;6.72;;;;;;;31.80;39.76;100412.53;5077473;28;20061;-77
2021/06/24 08:12:58;;;;;;;27.73;7.38;;;;;;;31.81;40.02;100409.22;5073612;28;20048;-77
2021/06/24 08:15:26;;;;;;;21.70;6.72;;;;;;;31.88;40.17;100427.31;5073923;28;20023;-77
2021/06/24 08:17:52;;;;;;;17.73;7.07;;;;;;;32.20;39.34;100452.00;5075110;28;20467;-77
2021/06/24 08:20:18;;;;;;;18.25;6.75;;;;;;;32.14;39.19;100467.63;5073859;28;20021;-77
2021/06/24 08:22:44;;;;;;;26.05;6.60;;;;;;;32.36;38.95;100475.75;5075189;28;20037;-77
2021/06/24 08:25:16;;;;;;;25.08;8.70;;;;;;;32.85;38.13;100474.63;5074734;28;20444;-77
2021/06/24 08:27:42;;;;;;;23.30;7.00;;;;;;;33.07;37.76;100466.19;5073351;28;20394;-77
2021/06/24 08:30:08;;;;;;;26.17;6.68;;;;;;;33.06;36.60;100453.09;5074593;28;20032;-77
2021/06/24 08:32:37;;;;;;;17.55;5.85;;;;;;;33.14;36.90;100464.94;5073483;28;20059;-78
2021/06/24 08:35:05;;;;;;;30.65;6.82;;;;;;;33.27;37.23;100476.81;5073339;28;20027;-78
2021/06/24 08:37:33;;;;;;;24.25;6.82;;;;;;;33.81;36.16;100490.50;5073183;28;20405;-78
2021/06/24 08:39:59;;;;;;;21.55;7.75;;;;;;;34.19;35.58;100500.66;5074149;28;20111;-77
2021/06/24 08:42:25;;;;;;;27.50;9.25;;;;;;;34.43;35.44;100503.09;5073499;28;20470;-77
2021/06/24 08:44:52;;;;;;;32.15;8.02;;;;;;;34.13;35.47;100479.63;5073568;28;20035;-77
2021/06/24 08:47:18;;;;;;;24.13;7.72;;;;;;;33.81;35.66;100470.31;5073235;28;20037;-77
2021/06/24 08:49:44;;;;;;;31.98;9.60;;;;;;;33.65;35.82;100457.38;5074459;28;20035;-77
2021/06/24 08:52:11;;;;;;;23.52;7.82;;;;;;;33.50;35.40;100456.78;5073102;28;20028;-77
2021/06/24 08:54:36;;;;;;;24.73;6.88;;;;;;;34.26;34.64;100474.16;5072973;28;20032;-77
2021/06/24 08:57:03;;;;;;;23.20;6.28;;;;;;;35.15;33.44;100487.91;5073685;28;20351;-77
2021/06/24 08:59:28;;;;;;;22.27;6.72;;;;;;;35.04;33.51;100499.50;5074443;28;20039;-78
2021/06/24 09:01:57;;;;;;;30.05;8.18;;;;;;;35.79;32.03;100519.88;5072048;28;20119;-78
2021/06/24 09:04:27;;;;;;;20.58;6.60;;;;;;;36.06;31.00;100511.66;5072658;28;20506;-77
2021/06/24 09:06:53;;;;;;;25.35;6.53;;;;;;;36.42;30.68;100522.03;5073348;28;20483;-78
2021/06/24 09:09:31;;;;;;;17.45;5.97;;;;;;;36.12;30.04;100521.91;5074075;28;20032;-77
2021/06/24 09:12:02;;;;;;;21.30;5.55;;;;;;;35.65;30.89;100518.91;5082003;28;20411;-77
2021/06/24 09:14:47;;;;;;;27.80;6.60;;;;;;;35.23;31.37;100530.78;5075100;28;20028;-78
2021/06/24 09:17:32;;;;;;;25.15;6.25;;;;;;;35.00;31.09;100521.34;5076489;28;20093;-77
2021/06/24 09:19:57;;;;;;;23.42;5.97;;;;;;;34.96;31.39;100515.81;5093892;28;20382;-77
2021/06/24 09:22:24;;;;;;;24.40;6.63;;;;;;;35.05;31.59;100500.28;5075738;28;20024;-77
2021/06/24 09:24:50;;;;;;;20.52;5.30;;;;;;;34.83;31.65;100501.84;5093687;28;20510;-76
2021/06/24 09:27:19;;;;;;;20.83;5.47;;;;;;;34.58;32.41;100503.66;5094079;28;20050;-77
2021/06/24 09:30:09;;;;;;;18.85;5.07;;;;;;;34.33;32.37;100482.31;5076583;28;20035;-76
2021/06/24 09:32:37;;;;;;;18.95;5.22;;;;;;;34.08;33.34;100491.94;5063888;28;20032;-76
2021/06/24 09:35:09;;;;;;;31.35;7.30;;;;;;;33.85;33.59;100483.19;5094990;28;20028;-77
2021/06/24 09:38:14;;;;;;;24.25;5.60;;;;;;;33.87;33.38;100480.56;5076728;28;20024;-76
2021/06/24 09:40:52;;;;;;;20.35;5.85;;;;;;;33.66;33.88;100467.59;5075616;28;20036;-77
2021/06/24 09:43:27;;;;;;;19.85;5.45;;;;;;;33.88;33.40;100469.81;5076805;28;20032;-77
2021/06/24 09:46:14;;;;;;;25.58;6.75;;;;;;;33.73;33.18;100458.47;5075918;28;20032;-77
2021/06/24 09:48:53;;;;;;;21.05;5.47;;;;;;;33.58;34.20;100455.78;5076436;28;20031;-77
2021/06/24 09:51:29;;;;;;;19.75;7.45;;;;;;;33.51;34.95;100464.16;5094120;28;20066;-77
2021/06/24 09:53:56;;;;;;;27.58;7.70;;;;;;;33.08;35.35;100452.59;5075989;28;20070;-76
2021/06/24 09:56:31;;;;;;;27.50;9.63;;;;;;;32.77;36.94;100447.59;5076079;28;20474;-76
2021/06/24 09:59:03;;;;;;;32.08;7.75;;;;;;;32.73;36.61;100470.88;5075434;28;20035;-77
2021/06/24 10:01:37;;;;;;;20.27;8.43;;;;;;;32.68;36.66;100460.09;5093383;28;20023;-77
2021/06/24 10:04:31;;;;;;;24.08;8.48;;;;;;;32.78;35.69;100455.72;5075435;28;20031;-77
2021/06/24 10:07:00;;;;;;;15.80;5.95;;;;;;;32.79;35.02;100482.44;5094219;28;20082;-77
2021/06/24 10:09:26;;;;;;;22.42;6.63;;;;;;;33.10;34.52;100479.56;5075434;28;20017;-76
2021/06/24 10:11:53;;;;;;;21.85;7.40;;;;;;;33.37;34.28;100472.41;5092758;28;20066;-77
2021/06/24 10:14:21;;;;;;;19.48;7.03;;;;;;;33.62;33.31;100481.50;5093723;28;20094;-77
2021/06/24 10:16:54;;;;;;;23.10;6.15;;;;;;;33.82;32.64;100458.25;5093421;28;20020;-77
2021/06/24 10:19:30;;;;;;;23.27;5.90;;;;;;;34.00;31.89;100470.69;5075179;28;20059;-77
2021/06/24 10:22:03;;;;;;;17.45;5.40;;;;;;;33.93;31.83;100442.28;5074662;28;20454;-76
2021/06/24 10:24:36;;;;;;;24.63;6.80;;;;;;;33.84;32.20;100443.31;5075792;28;20119;-77
2021/06/24 10:27:08;;;;;;;20.15;6.60;;;;;;;33.78;33.54;100443.28;5076530;28;20036;-77
2021/06/24 10:29:43;;;;;;;23.48;6.55;;;;;;;34.05;33.44;100469.91;5075299;28;20116;-76
2021/06/24 10:32:28;;;;;;;18.92;4.78;;;;;;;34.29;32.99;100481.78;5093397;28;20474;-77
2021/06/24 10:34:55;;;;;;;20.95;4.60;;;;;;;34.38;32.58;100478.66;5093335;28;20430;-77
2021/06/24 10:37:23;;;;;;;20.58;5.18;;;;;;;34.62;31.04;100480.28;5075470;28;20062;-77
2021/06/24 10:39:55;;;;;;;27.38;5.90;;;;;;;34.62;31.67;100492.66;5075023;28;20489;-77
2021/06/24 10:42:22;;;;;;;19.42;6.32;;;;;;;34.81;31.07;100495.00;5093319;28;20526;-77
2021/06/24 10:44:55;;;;;;;25.30;5.25;;;;;;;34.84;30.95;100499.75;5075741;28;20016;-77
2021/06/24 10:47:40;;;;;;;19.95;5.03;;;;;;;34.92;30.87;100501.56;5075006;28;20150;-77
2021/06/24 10:50:36;;;;;;;20.67;5.60;;;;;;;35.17;30.22;100501.88;5075332;28;20039;-77
2021/06/24 10:53:04;;;;;;;22.80;5.28;;;;;;;35.20;31.12;100506.56;5093865;28;20041;-76
2021/06/24 10:55:40;;;;;;;22.83;5.82;;;;;;;35.46;30.69;100499.75;5092886;28;20078;-77
2021/06/24 10:58:11;;;;;;;22.75;6.65;;;;;;;35.37;31.62;100504.47;5093144;28;20032;-76
2021/06/24 11:00:40;;;;;;;23.10;5.43;;;;;;;35.24;33.36;100501.31;5075324;28;20430;-76
2021/06/24 11:03:08;;;;;;;20.05;6.00;;;;;;;35.31;33.70;100483.41;5074913;28;20059;-77
2021/06/24 11:05:45;;;;;;;29.70;6.95;;;;;;;35.24;33.78;100483.97;5093546;28;20024;-77
2021/06/24 11:08:15;;;;;;;22.10;5.88;;;;;;;35.29;33.87;100491.06;5092624;28;20443;-76
2021/06/24 11:11:00;;;;;;;18.27;6.82;;;;;;;35.70;32.85;100497.03;5075027;28;20454;-76
2021/06/24 11:13:37;;;;;;;18.98;5.57;;;;;;;35.69;32.33;100499.16;5074693;28;20067;-76
2021/06/24 11:16:06;;;;;;;19.65;5.57;;;;;;;35.79;32.42;100488.03;5074909;28;20351;-77
2021/06/24 11:18:32;;;;;;;25.70;5.45;;;;;;;35.95;31.43;100484.31;5092688;28;20425;-76
2021/06/24 11:21:02;;;;;;;21.70;6.00;;;;;;;35.98;31.26;100473.00;5074274;28;20028;-76
2021/06/24 11:23:36;;;;;;;22.77;6.05;;;;;;;35.74;31.98;100471.50;5092419;28;20028;-75
2021/06/24 11:26:15;;;;;;;23.10;5.78;;;;;;;36.23;31.80;100468.94;5077984;28;20032;-76
2021/06/24 11:28:44;;;;;;;18.33;5.45;;;;;;;36.60;31.57;100485.03;5078352;28;20090;-76
2021/06/24 11:31:11;;;;;;;17.20;6.13;;;;;;;36.08;30.79;100480.06;5078277;28;20048;-78